Time;durP1;ratioP1;P1;durP2;ratioP2;P2;SDS_P1;SDS_P2;PMS_P1;PMS_P2;Temp;Humidity;BMP_temperature;BMP_pressure;BME280_temperature;BME280_humidity;BME280_pressure;Samples;Min_cycle;Max_cycle;Signal;HPM_P1;HPM_P2
2022/05/07 00:01:03;;;;;;;11.43;3.40;;;10.80;74.30;;;;;;5054677;28;20237;-54
2022/05/07 00:03:29;;;;;;;12.10;3.13;;;10.80;74.30;;;;;;5054308;28;20279;-52
2022/05/07 00:05:55;;;;;;;13.60;3.40;;;10.80;74.70;;;;;;5054492;28;20214;-54
2022/05/07 00:08:21;;;;;;;8.13;2.43;;;10.70;74.80;;;;;;5054356;28;20214;-53
2022/05/07 00:10:47;;;;;;;8.40;3.30;;;10.70;74.90;;;;;;5054458;28;20232;-53
2022/05/07 00:13:13;;;;;;;7.00;3.47;;;10.70;74.90;;;;;;5054415;28;20262;-54
2022/05/07 00:15:39;;;;;;;6.80;2.47;;;10.70;75.00;;;;;;5054630;28;20194;-55
2022/05/07 00:18:06;;;;;;;11.33;3.10;;;10.70;75.20;;;;;;5054505;28;20185;-56
2022/05/07 00:20:33;;;;;;;6.10;2.60;;;10.60;75.40;;;;;;5054330;28;20230;-54
2022/05/07 00:23:00;;;;;;;13.73;2.83;;;10.60;76.00;;;;;;5054187;28;20607;-54
2022/05/07 00:25:26;;;;;;;10.97;3.40;;;10.50;77.00;;;;;;5054332;28;20197;-57
2022/05/07 00:27:52;;;;;;;8.73;3.53;;;10.30;78.70;;;;;;5053156;28;20269;-54
2022/05/07 00:30:17;;;;;;;7.97;3.30;;;10.20;80.00;;;;;;5053688;28;20261;-53
2022/05/07 00:32:43;;;;;;;8.20;2.80;;;10.10;80.70;;;;;;5054152;28;20196;-52
2022/05/07 00:35:12;;;;;;;6.77;2.83;;;9.90;81.70;;;;;;5053951;28;20214;-54
2022/05/07 00:37:38;;;;;;;7.23;3.50;;;9.80;82.90;;;;;;5052658;28;20243;-50
2022/05/07 00:40:05;;;;;;;9.63;3.00;;;9.80;83.30;;;;;;5053781;28;20190;-49
2022/05/07 00:42:31;;;;;;;7.30;2.83;;;9.70;82.90;;;;;;5053630;28;20259;-52
2022/05/07 00:44:56;;;;;;;6.03;2.63;;;9.70;83.20;;;;;;5054072;28;20187;-53
2022/05/07 00:47:25;;;;;;;10.40;3.20;;;9.60;83.00;;;;;;5053160;28;20184;-52
2022/05/07 00:51:33;;;;;;;8.30;2.83;;;9.60;83.50;;;;;;5053508;28;20543;-53
2022/05/07 00:52:46;;;;;;;10.17;3.10;;;9.50;84.00;;;;;;5053223;28;20689;-51
2022/05/07 00:55:13;;;;;;;10.43;2.67;;;9.50;84.40;;;;;;5053578;28;20177;-52
2022/05/07 00:57:40;;;;;;;12.90;3.97;;;9.40;84.70;;;;;;5053578;28;20191;-54
2022/05/07 01:00:07;;;;;;;14.67;3.27;;;9.40;85.10;;;;;;5053605;28;20179;-49
2022/05/07 01:02:33;;;;;;;9.47;3.00;;;9.30;85.50;;;;;;5051888;28;20613;-55
2022/05/07 01:04:59;;;;;;;5.97;2.67;;;9.40;86.40;;;;;;5053316;28;20189;-52
2022/05/07 01:07:25;;;;;;;16.67;3.50;;;9.30;87.40;;;;;;5052516;28;20229;-53
2022/05/07 01:09:51;;;;;;;13.70;3.37;;;9.40;88.00;;;;;;5052914;28;20389;-54
2022/05/07 01:12:17;;;;;;;12.60;2.90;;;9.50;88.20;;;;;;5052841;28;20237;-52
2022/05/07 01:14:43;;;;;;;7.97;3.30;;;9.50;89.10;;;;;;5053202;28;20189;-56
2022/05/07 01:17:09;;;;;;;10.07;3.63;;;9.50;89.10;;;;;;5053248;28;20539;-53
2022/05/07 01:19:35;;;;;;;10.37;3.00;;;9.50;89.30;;;;;;5053202;28;20270;-53
2022/05/07 01:22:05;;;;;;;6.00;3.10;;;9.50;89.70;;;;;;5052722;28;20227;-52
2022/05/07 01:24:31;;;;;;;10.53;3.33;;;9.50;90.10;;;;;;5052638;28;20175;-54
2022/05/07 01:26:56;;;;;;;6.67;2.70;;;9.50;90.10;;;;;;5053068;28;20192;-53
2022/05/07 01:29:22;;;;;;;6.47;3.07;;;9.50;90.30;;;;;;5052459;28;20668;-53
2022/05/07 01:31:48;;;;;;;8.00;3.07;;;9.50;90.00;;;;;;5053177;28;20274;-56
2022/05/07 01:34:14;;;;;;;10.40;3.40;;;9.50;89.70;;;;;;5052706;28;20495;-51
2022/05/07 01:36:40;;;;;;;12.93;3.50;;;9.60;89.60;;;;;;5052812;28;20195;-55
2022/05/07 01:39:05;;;;;;;10.47;3.60;;;9.60;90.00;;;;;;5052445;28;20200;-54
2022/05/07 01:41:31;;;;;;;8.77;3.10;;;9.60;89.80;;;;;;5052427;28;20292;-54
2022/05/07 01:43:58;;;;;;;8.40;3.17;;;9.60;89.80;;;;;;5052693;28;20186;-53
2022/05/07 01:49:08;;;;;;;7.97;3.53;;;9.70;90.00;;;;;;5051553;28;20207;-55
2022/05/07 01:51:34;;;;;;;7.20;3.33;;;9.70;90.10;;;;;;5051968;28;20195;-54
2022/05/07 01:54:00;;;;;;;7.33;3.27;;;9.70;90.40;;;;;;5052463;28;20181;-51
2022/05/07 01:56:26;;;;;;;8.63;3.23;;;9.60;90.20;;;;;;5052161;28;20249;-53
2022/05/07 01:58:51;;;;;;;14.30;3.73;;;9.60;90.20;;;;;;5052350;28;20181;-55
2022/05/07 02:01:18;;;;;;;6.90;3.67;;;9.60;90.20;;;;;;5052008;28;20269;-54
2022/05/07 02:03:43;;;;;;;8.43;3.77;;;9.60;90.20;;;;;;5052304;28;20238;-55
2022/05/07 02:06:09;;;;;;;11.00;3.77;;;9.60;90.40;;;;;;5052272;28;20659;-54
2022/05/07 02:08:36;;;;;;;11.27;3.90;;;9.50;90.60;;;;;;5052087;28;20339;-53
2022/05/07 02:11:02;;;;;;;10.20;3.77;;;9.50;90.60;;;;;;5052097;28;20513;-54
2022/05/07 02:13:28;;;;;;;10.43;3.87;;;9.50;90.90;;;;;;5051642;28;20280;-53
2022/05/07 02:15:54;;;;;;;15.17;5.37;;;9.40;91.40;;;;;;5050643;28;20180;-54
2022/05/07 02:18:20;;;;;;;10.90;3.93;;;9.40;91.60;;;;;;5051034;28;20469;-53
2022/05/07 02:20:46;;;;;;;7.63;3.30;;;9.30;91.90;;;;;;5051711;28;20195;-54
2022/05/07 02:23:11;;;;;;;12.27;4.23;;;9.30;92.30;;;;;;5051692;28;20240;-56
2022/05/07 02:25:37;;;;;;;12.23;4.03;;;9.30;92.50;;;;;;5051546;28;20173;-54
2022/05/07 02:28:06;;;;;;;10.33;3.23;;;9.30;92.30;;;;;;5051240;28;20183;-54
2022/05/07 02:30:32;;;;;;;16.10;3.70;;;9.40;92.50;;;;;;5051492;28;20257;-54
2022/05/07 02:32:58;;;;;;;9.50;3.73;;;9.40;92.70;;;;;;5051656;28;20252;-54
2022/05/07 02:35:25;;;;;;;12.47;4.27;;;9.40;92.70;;;;;;5051539;28;20184;-53
2022/05/07 02:37:51;;;;;;;27.70;5.97;;;9.40;92.80;;;;;;5051762;28;20188;-55
2022/05/07 02:40:16;;;;;;;18.30;4.47;;;9.40;93.20;;;;;;5051272;28;20176;-54
2022/05/07 02:42:44;;;;;;;13.20;4.63;;;9.40;93.50;;;;;;5051533;28;20208;-55
2022/05/07 02:45:12;;;;;;;7.60;3.60;;;9.30;94.00;;;;;;5050245;28;20253;-49
2022/05/07 02:47:40;;;;;;;11.57;4.30;;;9.30;95.70;;;;;;5051341;28;20186;-53
2022/05/07 02:50:08;;;;;;;17.17;4.73;;;9.30;96.60;;;;;;5051239;28;20275;-53
2022/05/07 02:52:36;;;;;;;13.97;4.30;;;9.20;96.90;;;;;;5051299;28;20196;-55
2022/05/07 02:55:03;;;;;;;12.93;4.17;;;9.10;96.50;;;;;;5051272;28;20187;-54
2022/05/07 02:57:29;;;;;;;10.37;4.17;;;9.20;96.40;;;;;;5050961;28;20179;-54
2022/05/07 02:59:55;;;;;;;14.47;3.80;;;9.20;96.40;;;;;;5051529;28;20536;-52
2022/05/07 03:02:21;;;;;;;13.97;4.10;;;9.20;96.60;;;;;;5050762;28;20223;-53
2022/05/07 03:04:47;;;;;;;10.67;4.07;;;9.20;96.50;;;;;;5051251;28;20194;-55
2022/05/07 03:07:14;;;;;;;6.23;3.57;;;9.20;96.40;;;;;;5051327;28;20182;-54
2022/05/07 03:09:40;;;;;;;12.93;4.47;;;9.30;96.50;;;;;;5051032;28;20234;-54
2022/05/07 03:12:06;;;;;;;17.10;4.40;;;9.30;96.90;;;;;;5051005;28;20190;-49
2022/05/07 03:14:32;;;;;;;9.00;4.27;;;9.30;97.00;;;;;;5050624;28;20188;-52
2022/05/07 03:16:59;;;;;;;14.03;3.77;;;9.40;97.30;;;;;;5050928;28;20216;-55
2022/05/07 03:19:25;;;;;;;19.63;4.90;;;9.40;96.90;;;;;;5050645;28;20230;-53
2022/05/07 03:21:50;;;;;;;16.10;4.87;;;9.50;96.60;;;;;;5050862;28;20241;-51
2022/05/07 03:24:16;;;;;;;12.57;4.60;;;9.50;96.50;;;;;;5050638;28;20541;-55
2022/05/07 03:26:42;;;;;;;12.83;5.07;;;9.50;96.60;;;;;;5050667;28;20186;-53
2022/05/07 03:29:08;;;;;;;17.60;5.23;;;9.60;96.50;;;;;;5029638;28;20179;-52
2022/05/07 03:31:34;;;;;;;8.87;4.17;;;9.60;96.50;;;;;;5034491;28;20192;-53
2022/05/07 03:34:00;;;;;;;11.30;4.23;;;9.70;96.80;;;;;;5035222;28;20187;-53
2022/05/07 03:36:25;;;;;;;15.93;5.17;;;9.70;97.20;;;;;;5034916;28;20672;-53
2022/05/07 03:38:51;;;;;;;14.63;4.97;;;9.70;97.40;;;;;;5034974;28;20548;-54
2022/05/07 03:41:19;;;;;;;34.23;9.83;;;9.70;97.60;;;;;;5033356;28;20218;-51
2022/05/07 03:43:45;;;;;;;12.37;4.73;;;9.70;97.60;;;;;;5034545;28;20633;-53
2022/05/07 03:46:11;;;;;;;13.30;5.20;;;9.80;98.10;;;;;;5034779;28;20185;-53
2022/05/07 03:48:37;;;;;;;22.53;6.13;;;9.80;97.40;;;;;;5034469;28;20188;-55
2022/05/07 03:51:03;;;;;;;17.07;4.77;;;9.80;97.40;;;;;;5047177;28;20272;-53
2022/05/07 03:53:29;;;;;;;14.87;4.53;;;9.90;97.20;;;;;;5054263;28;20622;-54
2022/05/07 03:55:56;;;;;;;17.33;4.90;;;9.90;97.30;;;;;;5054519;28;20185;-52
2022/05/07 03:58:22;;;;;;;17.07;5.13;;;9.90;97.60;;;;;;5054346;28;20233;-55
2022/05/07 04:00:48;;;;;;;16.57;4.53;;;9.90;97.80;;;;;;5054554;28;20192;-55
2022/05/07 04:03:13;;;;;;;11.73;4.80;;;9.90;98.10;;;;;;5053759;28;20231;-55
2022/05/07 04:05:39;;;;;;;15.90;5.17;;;9.90;98.40;;;;;;5054306;28;20211;-51
2022/05/07 04:08:06;;;;;;;19.53;5.10;;;9.90;98.80;;;;;;5054828;28;20627;-53
2022/05/07 04:10:32;;;;;;;13.93;5.13;;;9.90;99.20;;;;;;5054178;28;20677;-55
2022/05/07 04:12:57;;;;;;;12.90;5.07;;;10.00;99.80;;;;;;5054503;28;20181;-54
2022/05/07 04:15:23;;;;;;;17.03;5.10;;;10.00;99.80;;;;;;5053948;28;20175;-55
2022/05/07 04:17:50;;;;;;;16.50;5.10;;;10.00;99.90;;;;;;5054417;28;20195;-52
2022/05/07 04:20:16;;;;;;;15.63;5.30;;;10.00;99.90;;;;;;5054059;28;20565;-53
2022/05/07 04:22:42;;;;;;;19.03;6.03;;;10.10;99.90;;;;;;5052204;28;20303;-52
2022/05/07 04:25:10;;;;;;;13.53;5.93;;;10.20;99.90;;;;;;5054015;28;20186;-54
2022/05/07 04:27:36;;;;;;;8.37;4.80;;;10.20;99.90;;;;;;5054030;28;20184;-50
2022/05/07 04:30:02;;;;;;;22.93;6.37;;;10.30;99.90;;;;;;5054028;28;20181;-53
2022/05/07 04:32:28;;;;;;;24.87;7.13;;;10.40;99.90;;;;;;5053946;28;20189;-53
2022/05/07 04:34:57;;;;;;;15.80;5.97;;;10.40;99.90;;;;;;5054083;28;20186;-53
2022/05/07 04:37:24;;;;;;;19.33;6.07;;;10.50;99.90;;;;;;5054079;28;20687;-53
2022/05/07 04:39:50;;;;;;;21.93;7.40;;;10.60;99.90;;;;;;5054907;28;20532;-54
2022/05/07 04:42:16;;;;;;;18.87;6.63;;;10.80;99.90;;;;;;5051725;28;20202;-54
2022/05/07 04:44:42;;;;;;;15.20;6.00;;;11.00;99.90;;;;;;5053256;28;20187;-54
2022/05/07 04:47:08;;;;;;;20.90;5.80;;;11.10;99.80;;;;;;5053673;28;20258;-55
2022/05/07 04:49:35;;;;;;;21.20;7.03;;;11.20;99.40;;;;;;5053621;28;20212;-54
2022/05/07 04:52:01;;;;;;;14.77;6.67;;;11.30;98.90;;;;;;5053372;28;20663;-56
2022/05/07 04:54:27;;;;;;;16.70;5.83;;;11.40;98.80;;;;;;5053020;28;20257;-53
2022/05/07 04:56:53;;;;;;;17.77;6.20;;;11.60;98.60;;;;;;5053636;28;20219;-56
2022/05/07 04:59:20;;;;;;;17.10;6.10;;;11.70;98.10;;;;;;5053750;28;20262;-53
2022/05/07 05:01:47;;;;;;;23.90;7.20;;;11.70;97.40;;;;;;5053503;28;20312;-53
2022/05/07 05:04:13;;;;;;;18.97;5.83;;;11.80;97.20;;;;;;5053500;28;20179;-54
2022/05/07 05:06:40;;;;;;;20.10;6.47;;;11.80;97.20;;;;;;5053531;28;20233;-55
2022/05/07 05:09:07;;;;;;;12.53;6.10;;;11.90;96.90;;;;;;5053740;28;20180;-53
2022/05/07 05:11:34;;;;;;;21.43;6.00;;;11.90;96.70;;;;;;5051854;28;20187;-55
2022/05/07 05:14:00;;;;;;;17.60;6.63;;;11.90;96.60;;;;;;5053206;28;20276;-55
2022/05/07 05:16:26;;;;;;;14.83;6.23;;;12.00;96.40;;;;;;5052925;28;20204;-52
2022/05/07 05:18:52;;;;;;;20.53;6.83;;;12.10;95.90;;;;;;5053467;28;20187;-53
2022/05/07 05:21:18;;;;;;;18.07;6.70;;;12.10;95.70;;;;;;5053315;28;20274;-52
2022/05/07 05:23:46;;;;;;;16.43;6.40;;;12.20;95.90;;;;;;5052798;28;20310;-53
2022/05/07 05:26:13;;;;;;;18.57;6.63;;;12.20;95.50;;;;;;5053100;28;20188;-55
2022/05/07 05:28:40;;;;;;;24.80;8.33;;;12.40;95.60;;;;;;5053066;28;20183;-56
2022/05/07 05:31:06;;;;;;;22.30;7.97;;;12.60;95.40;;;;;;5052718;28;20576;-55
2022/05/07 05:33:32;;;;;;;36.63;10.00;;;12.70;94.90;;;;;;5052279;28;20230;-54
2022/05/07 05:35:58;;;;;;;25.60;8.07;;;12.80;94.70;;;;;;5051259;28;20322;-52
2022/05/07 05:38:24;;;;;;;18.50;7.97;;;13.00;94.50;;;;;;5052811;28;20676;-53
2022/05/07 05:40:50;;;;;;;17.43;7.30;;;13.10;94.20;;;;;;5052799;28;20197;-54
2022/05/07 05:43:17;;;;;;;18.03;7.53;;;13.40;94.10;;;;;;5052309;28;20666;-52
2022/05/07 05:45:43;;;;;;;15.30;7.03;;;13.40;93.80;;;;;;5052344;28;20185;-55
2022/05/07 05:48:09;;;;;;;19.00;7.27;;;13.50;93.60;;;;;;5052630;28;20203;-53
2022/05/07 05:50:35;;;;;;;17.47;7.47;;;13.50;93.50;;;;;;5052332;28;20190;-55
2022/05/07 05:53:02;;;;;;;20.07;6.67;;;13.80;93.00;;;;;;5052211;28;20186;-53
2022/05/07 05:55:27;;;;;;;17.70;7.07;;;13.80;92.90;;;;;;5051679;28;20182;-54
2022/05/07 05:57:56;;;;;;;19.97;7.23;;;13.80;92.60;;;;;;5050924;28;20193;-55
2022/05/07 06:00:21;;;;;;;13.53;6.57;;;13.80;92.70;;;;;;5046416;28;20199;-62
2022/05/07 06:02:47;;;;;;;13.70;5.87;;;13.90;92.70;;;;;;5051368;28;20221;-56
2022/05/07 06:05:16;;;;;;;16.60;5.90;;;13.90;92.40;;;;;;5052551;28;20304;-68
2022/05/07 06:07:41;;;;;;;25.53;6.80;;;14.00;92.30;;;;;;5050401;28;20186;-59
2022/05/07 06:10:08;;;;;;;13.83;5.97;;;14.00;92.10;;;;;;5049758;28;20208;-60
2022/05/07 06:12:34;;;;;;;26.30;8.30;;;13.90;92.10;;;;;;5050105;28;20186;-60
2022/05/07 06:15:00;;;;;;;22.47;6.83;;;13.80;91.90;;;;;;5050083;28;20174;-59
2022/05/07 06:17:26;;;;;;;13.97;6.27;;;13.60;92.30;;;;;;5051041;28;20535;-61
2022/05/07 06:19:52;;;;;;;11.87;6.07;;;13.60;93.30;;;;;;5051138;28;20597;-54
2022/05/07 06:22:18;;;;;;;18.53;6.50;;;13.50;93.40;;;;;;5049283;28;20310;-49
2022/05/07 06:27:31;;;;;;;14.43;6.70;;;13.50;93.80;;;;;;5049358;28;20696;-56
2022/05/07 06:30:05;;;;;;;14.83;6.33;;;13.60;93.90;;;;;;5049668;28;20549;-52
2022/05/07 06:32:42;;;;;;;14.03;7.07;;;13.60;93.80;;;;;;5049824;28;20658;-55
2022/05/07 06:35:10;;;;;;;27.27;7.07;;;13.60;93.70;;;;;;5051555;28;20535;-52
2022/05/07 06:37:37;;;;;;;19.60;6.87;;;13.80;93.60;;;;;;5051319;28;20205;-53
2022/05/07 06:40:05;;;;;;;23.17;7.27;;;13.90;93.20;;;;;;5051731;28;20642;-55
2022/05/07 06:42:34;;;;;;;20.40;7.77;;;14.20;93.20;;;;;;5051290;28;20210;-50
2022/05/07 06:44:59;;;;;;;17.47;7.20;;;14.40;92.80;;;;;;5051034;28;20188;-59
2022/05/07 06:47:26;;;;;;;21.50;7.40;;;14.60;92.50;;;;;;5050968;28;20265;-56
2022/05/07 06:49:51;;;;;;;18.03;7.07;;;14.80;92.30;;;;;;5051088;28;20186;-57
2022/05/07 06:52:18;;;;;;;17.73;6.47;;;14.90;91.90;;;;;;5051131;28;20244;-51
2022/05/07 06:54:44;;;;;;;14.50;7.03;;;14.90;91.90;;;;;;5051062;28;20186;-52
2022/05/07 06:57:10;;;;;;;19.10;9.13;;;15.00;91.80;;;;;;5050615;28;20608;-55
2022/05/07 06:59:36;;;;;;;20.13;8.17;;;15.00;91.30;;;;;;5049738;28;20181;-55
2022/05/07 07:02:03;;;;;;;16.37;7.53;;;15.10;91.30;;;;;;5049884;28;20228;-52
2022/05/07 07:04:29;;;;;;;18.07;6.93;;;15.30;91.00;;;;;;5050034;28;20650;-51
2022/05/07 07:06:54;;;;;;;16.83;6.00;;;15.50;90.90;;;;;;5050819;28;20261;-53
2022/05/07 07:09:20;;;;;;;14.73;6.03;;;15.70;90.60;;;;;;5051294;28;20561;-57
2022/05/07 07:11:47;;;;;;;25.60;7.20;;;15.90;90.30;;;;;;5050701;28;20192;-56
2022/05/07 07:14:13;;;;;;;22.83;6.70;;;16.00;90.30;;;;;;5049332;28;20199;-52
2022/05/07 07:16:39;;;;;;;24.30;7.07;;;16.40;90.00;;;;;;5050562;28;20187;-59
2022/05/07 07:19:04;;;;;;;24.40;12.03;;;16.70;89.10;;;;;;5049266;28;20552;-60
2022/05/07 07:21:30;;;;;;;14.27;6.50;;;16.80;88.80;;;;;;5050396;28;20685;-58
2022/05/07 07:23:57;;;;;;;18.80;6.90;;;16.90;88.10;;;;;;5046154;28;20226;-56
2022/05/07 07:26:23;;;;;;;20.13;7.37;;;17.20;87.40;;;;;;5040456;28;20690;-55
2022/05/07 07:28:49;;;;;;;22.43;8.73;;;17.10;87.50;;;;;;5032164;28;20235;-52
2022/05/07 07:31:16;;;;;;;25.10;8.43;;;17.40;86.50;;;;;;5049368;28;20554;-52
2022/05/07 07:33:42;;;;;;;26.87;8.23;;;17.40;87.30;;;;;;5047604;28;20672;-53
2022/05/07 07:36:09;;;;;;;19.77;7.10;;;17.40;86.30;;;;;;5049128;28;20290;-51
2022/05/07 07:38:35;;;;;;;24.33;7.73;;;17.70;85.30;;;;;;5044989;28;20201;-52
2022/05/07 07:41:02;;;;;;;18.50;7.23;;;17.60;85.40;;;;;;5048594;28;20643;-56
2022/05/07 07:43:29;;;;;;;23.87;8.47;;;17.60;85.00;;;;;;5049492;28;20273;-53
2022/05/07 07:48:39;;;;;;;14.07;7.33;;;18.00;84.60;;;;;;5048236;28;20192;-53
2022/05/07 07:51:06;;;;;;;16.83;7.13;;;18.00;83.10;;;;;;5051140;28;20281;-51
2022/05/07 07:53:33;;;;;;;16.57;7.30;;;18.30;82.60;;;;;;5049258;28;20225;-58
2022/05/07 07:55:59;;;;;;;14.43;6.73;;;18.40;82.40;;;;;;5050098;28;20194;-52
2022/05/07 07:58:24;;;;;;;20.13;7.23;;;18.40;81.50;;;;;;5050110;28;20213;-53
2022/05/07 08:00:51;;;;;;;19.27;8.80;;;18.20;81.00;;;;;;5048624;28;20277;-53
2022/05/07 08:03:18;;;;;;;24.87;10.00;;;18.50;80.50;;;;;;5050069;28;20670;-54
2022/05/07 08:05:47;;;;;;;23.57;8.23;;;18.90;79.90;;;;;;5049803;28;20186;-51
2022/05/07 08:13:45;;;;;;;17.20;7.10;;;19.40;78.70;;;;;;5049663;28;20565;-52
2022/05/07 08:16:12;;;;;;;17.50;8.20;;;19.40;78.70;;;;;;5050250;28;20187;-54
2022/05/07 08:18:39;;;;;;;20.52;8.48;;;19.30;78.30;;;;;;5053304;28;20696;-53
2022/05/07 08:21:06;;;;;;;16.42;7.85;;;19.50;78.80;;;;;;5053992;28;20197;-58
2022/05/07 08:23:32;;;;;;;23.77;7.85;;;19.60;78.60;;;;;;5053820;28;20226;-50
2022/05/07 08:25:58;;;;;;;14.13;7.00;;;19.40;79.10;;;;;;5053262;28;20529;-53
2022/05/07 08:28:24;;;;;;;16.90;6.03;;;19.60;78.90;;;;;;5048165;28;20231;-52
2022/05/07 08:30:53;;;;;;;15.43;7.00;;;19.60;78.30;;;;;;5050989;28;20650;-53
2022/05/07 08:33:19;;;;;;;19.42;8.45;;;19.90;77.70;;;;;;5040668;28;20663;-52
2022/05/07 08:35:45;;;;;;;15.70;6.90;;;20.20;75.00;;;;;;5053441;28;20633;-53
2022/05/07 08:38:12;;;;;;;22.48;7.88;;;20.20;75.00;;;;;;5053654;28;20602;-50
2022/05/07 08:40:40;;;;;;;13.73;6.00;;;20.30;74.50;;;;;;5050677;28;20198;-50
2022/05/07 08:43:06;;;;;;;12.48;5.10;;;20.40;73.90;;;;;;5053511;28;20293;-50
2022/05/07 08:45:34;;;;;;;21.25;5.85;;;20.30;72.80;;;;;;5053125;28;20205;-55
2022/05/07 08:48:00;;;;;;;12.02;5.53;;;20.20;73.20;;;;;;5053772;28;20183;-54
2022/05/07 08:50:26;;;;;;;14.95;5.10;;;20.10;72.80;;;;;;5052891;28;20228;-54
2022/05/07 08:52:53;;;;;;;19.08;5.90;;;20.10;72.30;;;;;;5051932;28;20191;-58
2022/05/07 08:55:21;;;;;;;16.13;6.85;;;20.20;72.10;;;;;;5052108;28;20175;-55
2022/05/07 08:57:48;;;;;;;15.52;4.97;;;20.30;70.80;;;;;;5052286;28;20183;-54
2022/05/07 09:00:16;;;;;;;9.93;4.82;;;20.20;69.70;;;;;;5052864;28;20265;-53
2022/05/07 09:02:59;;;;;;;8.85;4.82;;;20.10;67.00;;;;;;5051652;28;20636;-54
2022/05/07 09:05:36;;;;;;;15.00;5.18;;;20.10;66.40;;;;;;5052802;28;20532;-57
2022/05/07 09:08:04;;;;;;;15.25;5.43;;;20.20;67.20;;;;;;5053157;28;20170;-54
2022/05/07 09:10:35;;;;;;;12.60;4.15;;;20.20;66.90;;;;;;5052119;28;20274;-56
2022/05/07 09:13:14;;;;;;;10.93;4.88;;;20.40;66.10;;;;;;5051668;28;20183;-57
2022/05/07 09:15:51;;;;;;;15.25;4.75;;;20.70;65.00;;;;;;5051053;28;20584;-55
2022/05/07 09:18:19;;;;;;;20.90;5.22;;;20.80;64.50;;;;;;5050131;28;20182;-54
2022/05/07 09:20:56;;;;;;;11.48;4.95;;;20.80;65.70;;;;;;5051115;28;20210;-53
2022/05/07 09:23:22;;;;;;;13.45;5.80;;;21.00;64.30;;;;;;5051181;28;20599;-55
2022/05/07 09:25:49;;;;;;;16.75;5.50;;;21.10;64.00;;;;;;5052031;28;20232;-53
2022/05/07 09:28:26;;;;;;;10.40;4.70;;;21.30;64.70;;;;;;5051802;28;20682;-54
2022/05/07 09:30:55;;;;;;;12.60;5.07;;;21.50;64.40;;;;;;5052428;28;20192;-55
2022/05/07 09:33:32;;;;;;;11.70;5.00;;;21.30;63.80;;;;;;5052501;28;20189;-56
2022/05/07 09:36:10;;;;;;;9.95;4.70;;;21.50;63.90;;;;;;5052589;28;20268;-54
2022/05/07 09:38:37;;;;;;;14.00;5.03;;;21.30;63.70;;;;;;5052509;28;20166;-52
2022/05/07 09:41:03;;;;;;;13.77;4.97;;;21.30;63.00;;;;;;5052128;28;20537;-54
2022/05/07 09:43:30;;;;;;;24.33;5.63;;;21.20;64.00;;;;;;5051800;28;20228;-53
2022/05/07 09:45:56;;;;;;;15.02;4.93;;;21.40;63.20;;;;;;5052318;28;20190;-58
2022/05/07 09:48:22;;;;;;;18.48;5.32;;;21.50;63.40;;;;;;5052519;28;20539;-56
2022/05/07 09:50:49;;;;;;;12.18;4.85;;;21.60;63.40;;;;;;5051849;28;20563;-55
2022/05/07 09:58:49;;;;;;;17.48;5.22;;;21.20;63.30;;;;;;5051677;28;20570;-49
2022/05/07 10:01:21;;;;;;;24.77;6.82;;;21.30;63.20;;;;;;5051407;28;20205;-54
2022/05/07 10:04:24;;;;;;;11.68;5.03;;;21.30;62.80;;;;;;5051675;28;20191;-54
2022/05/07 10:07:14;;;;;;;11.98;4.93;;;21.30;62.50;;;;;;5051311;28;20204;-56
2022/05/07 10:09:43;;;;;;;17.77;4.88;;;21.50;62.00;;;;;;5049723;28;20175;-55
2022/05/07 10:12:16;;;;;;;11.57;4.90;;;21.70;60.60;;;;;;5051535;28;20182;-53
2022/05/07 10:14:42;;;;;;;23.10;4.65;;;21.50;60.10;;;;;;5050783;28;20159;-55
2022/05/07 10:17:09;;;;;;;16.98;5.40;;;21.40;60.60;;;;;;5050172;28;20528;-55
2022/05/07 10:19:43;;;;;;;17.63;5.50;;;21.30;60.20;;;;;;5050503;28;20178;-57
2022/05/07 10:22:16;;;;;;;15.55;4.90;;;21.50;58.90;;;;;;5050927;28;20282;-55
2022/05/07 10:24:42;;;;;;;14.10;4.65;;;21.70;59.10;;;;;;5050952;28;20194;-55
2022/05/07 10:27:20;;;;;;;9.15;4.68;;;21.50;57.30;;;;;;5051151;28;20186;-55
2022/05/07 10:29:47;;;;;;;17.00;6.00;;;21.40;58.40;;;;;;5049623;28;20182;-55
2022/05/07 10:32:18;;;;;;;20.38;5.30;;;21.50;58.30;;;;;;5049196;28;20186;-55
2022/05/07 10:34:51;;;;;;;21.23;6.03;;;21.50;56.50;;;;;;5049026;28;20292;-56
2022/05/07 10:37:17;;;;;;;12.20;4.60;;;21.60;56.90;;;;;;5049928;28;20182;-53
2022/05/07 10:39:51;;;;;;;10.00;4.25;;;21.70;56.20;;;;;;5048696;28;20256;-57
2022/05/07 10:42:18;;;;;;;11.15;4.72;;;21.80;56.20;;;;;;5051352;28;20208;-53
2022/05/07 10:44:44;;;;;;;14.40;4.57;;;21.80;54.60;;;;;;5050616;28;20205;-52
2022/05/07 10:47:15;;;;;;;11.32;5.28;;;21.80;55.10;;;;;;5049932;28;20179;-55
2022/05/07 10:50:14;;;;;;;17.40;5.68;;;21.90;54.60;;;;;;5049491;28;20194;-57
2022/05/07 10:52:39;;;;;;;17.00;5.15;;;21.90;54.80;;;;;;5016193;28;20540;-55
2022/05/07 10:55:09;;;;;;;13.98;5.25;;;21.80;54.70;;;;;;5051065;28;20189;-55
2022/05/07 10:57:42;;;;;;;12.80;5.22;;;21.70;55.50;;;;;;5049807;28;20183;-65
2022/05/07 11:00:22;;;;;;;20.85;6.45;;;21.80;55.40;;;;;;5050943;28;20178;-49
2022/05/07 11:02:56;;;;;;;14.02;5.93;;;21.90;55.00;;;;;;5050637;28;20642;-54
2022/05/07 11:05:32;;;;;;;15.82;5.47;;;22.40;54.90;;;;;;5050968;28;20609;-56
2022/05/07 11:08:03;;;;;;;19.13;5.07;;;22.60;53.40;;;;;;5050057;28;20677;-53
2022/05/07 11:10:30;;;;;;;16.23;6.35;;;22.80;52.30;;;;;;5050507;28;20174;-56
2022/05/07 11:13:13;;;;;;;15.80;5.22;;;23.10;53.20;;;;;;5050696;28;20657;-54
2022/05/07 11:15:39;;;;;;;11.55;5.15;;;23.40;52.20;;;;;;5050568;28;20624;-52
2022/05/07 11:18:15;;;;;;;16.95;6.63;;;23.50;51.00;;;;;;5050940;28;20190;-54
2022/05/07 11:20:44;;;;;;;15.85;6.68;;;23.80;50.90;;;;;;5050392;28;20205;-55
2022/05/07 11:23:13;;;;;;;11.68;4.63;;;24.40;48.50;;;;;;5050283;28;20308;-58
2022/05/07 11:25:40;;;;;;;12.32;6.10;;;24.70;48.40;;;;;;5050401;28;20205;-56
2022/05/07 11:28:06;;;;;;;17.13;5.82;;;25.70;46.90;;;;;;5050597;28;20187;-57
2022/05/07 11:30:32;;;;;;;15.50;5.13;;;26.20;44.60;;;;;;5031351;28;20216;-56
2022/05/07 11:33:04;;;;;;;14.90;5.22;;;26.60;44.80;;;;;;5030609;28;20294;-55
2022/05/07 11:35:30;;;;;;;19.77;5.85;;;28.10;42.70;;;;;;5030629;28;20225;-54
2022/05/07 11:37:56;;;;;;;14.73;5.65;;;28.90;41.50;;;;;;5030960;28;20172;-56
2022/05/07 11:40:29;;;;;;;20.80;5.68;;;28.10;41.70;;;;;;5031027;28;20186;-52
2022/05/07 11:45:40;;;;;;;18.10;6.43;;;28.40;40.10;;;;;;5030421;28;20182;-52
2022/05/07 11:48:14;;;;;;;11.20;5.70;;;28.60;39.70;;;;;;5030853;28;20172;-57
2022/05/07 11:51:00;;;;;;;17.23;5.82;;;28.40;39.10;;;;;;5030639;28;20659;-53
2022/05/07 11:53:30;;;;;;;21.02;5.60;;;28.20;40.30;;;;;;5033605;28;20610;-56
2022/05/07 11:56:12;;;;;;;17.65;5.55;;;27.50;40.80;;;;;;5034241;28;20635;-55
2022/05/07 11:58:43;;;;;;;23.95;5.90;;;26.80;41.10;;;;;;5034565;28;20582;-53
2022/05/07 12:01:22;;;;;;;12.77;6.10;;;26.30;41.40;;;;;;5034791;28;20233;-56
2022/05/07 12:03:49;;;;;;;19.38;5.22;;;26.10;40.70;;;;;;5034905;28;20186;-52
2022/05/07 12:06:26;;;;;;;15.27;5.65;;;27.10;40.40;;;;;;5034744;28;20186;-54
2022/05/07 12:08:52;;;;;;;14.07;6.18;;;28.10;39.00;;;;;;5032942;28;20187;-56
2022/05/07 12:11:18;;;;;;;8.88;5.72;;;27.80;38.50;;;;;;5034827;28;20171;-55
2022/05/07 12:13:45;;;;;;;18.10;5.80;;;27.70;39.70;;;;;;5034448;28;20190;-57
2022/05/07 12:18:55;;;;;;;14.30;5.88;;;27.90;39.50;;;;;;5034246;28;20217;-53
2022/05/07 12:29:48;;;;;;;16.55;5.93;;;28.10;38.90;;;;;;5050211;28;20182;-53
2022/05/07 12:29:50;;;;;;;16.45;6.70;;;28.50;37.90;;;;;;5053893;28;20205;-54
2022/05/07 12:32:21;;;;;;;12.32;5.85;;;29.00;38.10;;;;;;5054099;28;20174;-53
2022/05/07 12:34:48;;;;;;;16.00;5.95;;;28.90;36.60;;;;;;5053283;28;20242;-55
2022/05/07 12:37:15;;;;;;;18.40;6.65;;;29.00;36.70;;;;;;5051908;28;20187;-56
2022/05/07 12:39:41;;;;;;;19.25;6.25;;;28.70;37.40;;;;;;5053321;28;20183;-53
2022/05/07 12:42:08;;;;;;;13.57;6.03;;;28.40;37.20;;;;;;5053530;28;20264;-54
2022/05/07 12:44:34;;;;;;;17.30;6.55;;;28.10;37.70;;;;;;5053470;28;20213;-56
2022/05/07 12:47:00;;;;;;;14.48;6.65;;;28.60;37.30;;;;;;5052913;28;20655;-54
2022/05/07 12:49:27;;;;;;;17.35;6.35;;;29.00;37.30;;;;;;5053508;28;20170;-52
2022/05/07 12:51:53;;;;;;;10.80;6.15;;;28.90;36.80;;;;;;5052740;28;20624;-53
2022/05/07 12:54:19;;;;;;;15.52;6.75;;;28.90;36.60;;;;;;5053688;28;20221;-53
2022/05/07 12:56:46;;;;;;;13.55;5.82;;;28.90;36.10;;;;;;5051504;28;20193;-53
2022/05/07 12:59:12;;;;;;;24.65;7.72;;;29.50;36.30;;;;;;5053594;28;20187;-55
2022/05/07 13:01:40;;;;;;;17.65;6.05;;;29.40;35.90;;;;;;5053423;28;20210;-55
2022/05/07 13:04:06;;;;;;;13.10;6.57;;;29.70;36.00;;;;;;5051300;28;20186;-54
2022/05/07 13:06:32;;;;;;;17.98;7.70;;;30.30;35.70;;;;;;5053674;28;20201;-54
2022/05/07 13:09:00;;;;;;;12.95;6.82;;;30.60;35.60;;;;;;5053261;28;20647;-53
2022/05/07 13:11:26;;;;;;;17.88;6.40;;;30.20;36.30;;;;;;5052134;28;20174;-54
2022/05/07 13:13:52;;;;;;;16.33;6.65;;;30.60;35.70;;;;;;5053336;28;20182;-54